Time;durP1;ratioP1;P1;durP2;ratioP2;P2;SDS_P1;SDS_P2;PMS_P1;PMS_P2;Temp;Humidity;BMP_temperature;BMP_pressure;BME280_temperature;BME280_humidity;BME280_pressure;Samples;Min_cycle;Max_cycle;Signal;HPM_P1;HPM_P2
2022/09/16 00:00:33;;;;;;;;;;;;;;;22.65;50.90;95105.63;10457745;28;2404;-48
2022/09/16 00:05:36;;;;;;;;;;;;;;;22.64;50.92;95104.06;10453153;28;2367;-48
2022/09/16 00:10:36;;;;;;;;;;;;;;;22.64;51.02;95090.88;10454129;28;2301;-48
2022/09/16 00:15:40;;;;;;;;;;;;;;;22.63;50.67;95090.09;10454497;28;2356;-48
2022/09/16 00:20:47;;;;;;;;;;;;;;;22.62;50.81;95083.25;10453451;28;2292;-48
2022/09/16 00:25:51;;;;;;;;;;;;;;;22.61;50.77;95089.59;10454863;28;2359;-48
2022/09/16 00:30:51;;;;;;;;;;;;;;;22.62;50.92;95069.25;10460201;28;2280;-48
2022/09/16 00:35:52;;;;;;;;;;;;;;;22.60;50.84;95059.00;10459347;28;2334;-48
2022/09/16 00:40:52;;;;;;;;;;;;;;;22.61;50.84;95065.84;10463779;28;2361;-47
2022/09/16 00:45:58;;;;;;;;;;;;;;;22.61;50.59;95062.41;10460984;28;2363;-48
2022/09/16 00:51:02;;;;;;;;;;;;;;;22.61;50.50;95078.25;10462489;28;2408;-47
2022/09/16 00:56:03;;;;;;;;;;;;;;;22.60;50.53;95079.34;10456722;28;2269;-48
2022/09/16 01:01:04;;;;;;;;;;;;;;;22.59;50.39;95081.19;10464408;28;2344;-48
2022/09/16 01:06:05;;;;;;;;;;;;;;;22.58;50.50;95077.00;10459619;28;2739;-48
2022/09/16 01:11:05;;;;;;;;;;;;;;;22.57;50.63;95085.19;10471512;28;2325;-48
2022/09/16 01:16:06;;;;;;;;;;;;;;;22.58;50.80;95077.00;10466383;28;2354;-48
2022/09/16 01:21:07;;;;;;;;;;;;;;;22.56;50.54;95065.94;10491632;28;2418;-48
2022/09/16 01:26:13;;;;;;;;;;;;;;;22.57;50.45;95066.69;10468420;28;2655;-46
2022/09/16 01:31:25;;;;;;;;;;;;;;;22.56;50.72;95079.16;10472286;28;2300;-48
2022/09/16 01:36:38;;;;;;;;;;;;;;;22.55;50.65;95077.56;10495601;28;2352;-48
2022/09/16 01:42:08;;;;;;;;;;;;;;;22.54;50.50;95065.47;10457405;28;2316;-48
2022/09/16 01:47:10;;;;;;;;;;;;;;;22.54;50.66;95057.53;10468418;28;2322;-48
2022/09/16 01:52:13;;;;;;;;;;;;;;;22.56;50.77;95067.78;10476245;28;2270;-48
2022/09/16 01:57:43;;;;;;;;;;;;;;;22.54;50.57;95069.97;10462477;28;2307;-48
2022/09/16 02:03:03;;;;;;;;;;;;;;;22.53;50.68;95066.53;10452405;28;2363;-48
2022/09/16 02:08:10;;;;;;;;;;;;;;;22.53;50.35;95069.16;10493256;28;2313;-48
2022/09/16 02:13:16;;;;;;;;;;;;;;;22.53;50.57;95071.03;10497559;28;2346;-48
2022/09/16 02:18:18;;;;;;;;;;;;;;;22.51;50.37;95071.34;10463199;28;2281;-48
2022/09/16 02:23:19;;;;;;;;;;;;;;;22.51;50.39;95073.19;10492004;28;2294;-41
2022/09/16 02:28:22;;;;;;;;;;;;;;;22.51;50.71;95076.63;10460330;28;2322;-41
2022/09/16 02:33:22;;;;;;;;;;;;;;;22.52;50.47;95070.25;10492122;28;2333;-41
2022/09/16 02:38:24;;;;;;;;;;;;;;;22.50;50.67;95067.13;10490145;28;2759;-41
2022/09/16 02:43:24;;;;;;;;;;;;;;;22.50;50.39;95067.13;10458073;28;2345;-41
2022/09/16 02:48:24;;;;;;;;;;;;;;;22.50;50.64;95069.75;10461714;28;2323;-41
2022/09/16 02:53:35;;;;;;;;;;;;;;;22.49;50.67;95067.44;10463131;28;2356;-41
2022/09/16 02:58:35;;;;;;;;;;;;;;;22.50;50.57;95069.75;10488644;28;2434;-40
2022/09/16 03:03:36;;;;;;;;;;;;;;;22.49;50.34;95062.94;10459044;28;2403;-46
2022/09/16 03:08:36;;;;;;;;;;;;;;;22.48;50.64;95061.34;10455191;28;2312;-47
2022/09/16 03:13:44;;;;;;;;;;;;;;;22.48;50.46;95057.97;10457125;28;2449;-48
2022/09/16 03:18:50;;;;;;;;;;;;;;;22.47;50.68;95049.25;10459348;28;2411;-48
2022/09/16 03:23:55;;;;;;;;;;;;;;;22.48;50.64;95048.16;10462375;28;2364;-48
2022/09/16 03:29:06;;;;;;;;;;;;;;;22.49;50.43;95038.38;10461770;28;2371;-48
2022/09/16 03:34:20;;;;;;;;;;;;;;;22.47;50.48;95033.41;10474199;28;2380;-48
2022/09/16 03:39:21;;;;;;;;;;;;;;;22.46;50.37;95034.47;10495086;28;2292;-48
2022/09/16 03:44:29;;;;;;;;;;;;;;;22.47;50.58;95035.25;10492753;28;2179;-48
2022/09/16 03:49:29;;;;;;;;;;;;;;;22.46;50.58;95039.00;10490117;28;2333;-48
2022/09/16 03:54:30;;;;;;;;;;;;;;;22.45;50.60;95032.13;10449387;28;2320;-47
2022/09/16 03:59:31;;;;;;;;;;;;;;;22.46;50.59;95028.44;10458568;28;2420;-48
2022/09/16 04:04:31;;;;;;;;;;;;;;;22.46;50.30;95029.19;10483943;28;2355;-47
2022/09/16 04:09:31;;;;;;;;;;;;;;;22.46;50.41;95025.78;10456659;28;2340;-48
2022/09/16 04:14:32;;;;;;;;;;;;;;;22.44;50.28;95031.34;10455932;28;2292;-47
2022/09/16 04:19:32;;;;;;;;;;;;;;;22.45;50.21;95030.28;10458093;28;2327;-47
2022/09/16 04:24:32;;;;;;;;;;;;;;;22.44;50.45;95036.63;10456379;28;2228;-48
2022/09/16 04:29:33;;;;;;;;;;;;;;;22.43;50.26;95032.44;10455247;28;2464;-47
2022/09/16 04:34:33;;;;;;;;;;;;;;;22.42;50.16;95046.72;10460052;28;2327;-48
2022/09/16 04:39:33;;;;;;;;;;;;;;;22.44;50.28;95041.16;10488507;28;2314;-48
2022/09/16 04:44:34;;;;;;;;;;;;;;;22.43;50.73;95047.50;10458887;28;2328;-47
2022/09/16 04:49:34;;;;;;;;;;;;;;;22.42;50.59;95052.00;10455561;28;2345;-48
2022/09/16 04:54:35;;;;;;;;;;;;;;;22.40;50.62;95054.16;10456601;28;2418;-48
2022/09/16 04:59:35;;;;;;;;;;;;;;;22.42;50.61;95052.00;10461869;28;2396;-47
2022/09/16 05:04:35;;;;;;;;;;;;;;;22.40;50.74;95054.16;10452263;28;2384;-48
2022/09/16 05:09:36;;;;;;;;;;;;;;;22.40;50.60;95062.09;10461767;28;2349;-48
2022/09/16 05:14:37;;;;;;;;;;;;;;;22.39;50.60;95070.31;10452533;28;2321;-48
2022/09/16 05:19:37;;;;;;;;;;;;;;;22.38;50.28;95064.25;10461902;28;2401;-48
2022/09/16 05:24:37;;;;;;;;;;;;;;;22.37;50.59;95061.91;10466653;28;2348;-48
2022/09/16 05:29:38;;;;;;;;;;;;;;;22.38;50.29;95061.63;10459810;28;2411;-48
2022/09/16 05:34:38;;;;;;;;;;;;;;;22.38;50.10;95058.97;10457029;28;2328;-48
2022/09/16 05:39:39;;;;;;;;;;;;;;;22.38;50.29;95055.56;10466519;28;2336;-48
2022/09/16 05:44:39;;;;;;;;;;;;;;;22.38;50.34;95056.34;10456849;28;2358;-48
2022/09/16 05:49:39;;;;;;;;;;;;;;;22.38;50.32;95047.66;10456466;28;2385;-48
2022/09/16 05:54:40;;;;;;;;;;;;;;;22.38;50.29;95050.28;10456515;28;2387;-48
2022/09/16 05:59:40;;;;;;;;;;;;;;;22.37;50.25;95056.63;10461023;28;2312;-41
2022/09/16 06:04:41;;;;;;;;;;;;;;;22.37;50.30;95046.88;10486905;28;2287;-41
2022/09/16 06:09:41;;;;;;;;;;;;;;;22.38;50.26;95050.28;10455867;28;2309;-41
2022/09/16 06:14:41;;;;;;;;;;;;;;;22.36;50.20;95041.91;10459482;28;2341;-41
2022/09/16 06:19:42;;;;;;;;;;;;;;;22.36;50.20;95041.91;10458335;28;2299;-41
2022/09/16 06:24:42;;;;;;;;;;;;;;;22.36;49.85;95041.91;10460841;28;2421;-41
2022/09/16 06:29:42;;;;;;;;;;;;;;;22.36;49.98;95045.28;10463242;28;2328;-41
2022/09/16 06:34:43;;;;;;;;;;;;;;;22.36;50.02;95042.66;10462138;28;2344;-48
2022/09/16 06:39:43;;;;;;;;;;;;;;;22.36;49.81;95041.91;10455958;28;2375;-48
2022/09/16 06:44:43;;;;;;;;;;;;;;;22.36;50.23;95047.19;10449736;28;2442;-48
2022/09/16 06:49:45;;;;;;;;;;;;;;;22.35;50.05;95041.09;10447180;28;2263;-48
2022/09/16 06:54:46;;;;;;;;;;;;;;;22.36;50.12;95052.44;10449357;28;2366;-48
2022/09/16 06:59:47;;;;;;;;;;;;;;;22.35;50.05;95046.38;10456186;28;2585;-48
2022/09/16 07:04:47;;;;;;;;;;;;;;;22.35;50.12;95040.31;10445069;28;2571;-48
2022/09/16 07:09:47;;;;;;;;;;;;;;;22.33;49.86;95038.00;10442130;28;2546;-48
2022/09/16 07:14:48;;;;;;;;;;;;;;;22.33;49.87;95035.34;10447609;28;2492;-47
2022/09/16 07:19:48;;;;;;;;;;;;;;;22.33;50.06;95038.00;10455504;28;2576;-46
2022/09/16 07:24:48;;;;;;;;;;;;;;;22.33;50.14;95040.63;10454890;28;2647;-48
2022/09/16 07:29:48;;;;;;;;;;;;;;;22.33;49.95;95038.00;10457273;28;2582;-48
2022/09/16 07:34:49;;;;;;;;;;;;;;;22.34;50.01;95039.53;10449177;28;2691;-48
2022/09/16 07:39:49;;;;;;;;;;;;;;;22.35;50.07;95050.88;10453816;28;2558;-48
2022/09/16 07:44:49;;;;;;;;;;;;;;;22.35;50.13;95049.03;10451521;28;2724;-48
2022/09/16 07:49:54;;;;;;;;;;;;;;;22.34;50.08;95036.13;10452834;28;2593;-48
2022/09/16 07:54:55;;;;;;;;;;;;;;;22.33;50.13;95040.63;10448875;28;2652;-48
2022/09/16 07:59:59;;;;;;;;;;;;;;;22.34;50.30;95039.53;10440806;28;2631;-48
2022/09/16 08:05:00;;;;;;;;;;;;;;;22.35;50.21;95041.09;10446479;28;2552;-47
2022/09/16 08:10:00;;;;;;;;;;;;;;;22.35;50.14;95040.31;10451529;28;2565;-47
2022/09/16 08:15:00;;;;;;;;;;;;;;;22.34;50.22;95034.25;10448695;28;2523;-47
2022/09/16 08:20:04;;;;;;;;;;;;;;;22.35;50.35;95038.47;10453808;28;2745;-48
2022/09/16 08:25:05;;;;;;;;;;;;;;;22.36;50.40;95044.53;10451385;28;2647;-48
2022/09/16 08:30:05;;;;;;;;;;;;;;;22.37;50.20;95046.88;10451395;28;2590;-48
2022/09/16 08:35:06;;;;;;;;;;;;;;;22.36;50.46;95050.56;10439962;28;2567;-48
2022/09/16 08:40:07;;;;;;;;;;;;;;;22.38;50.15;95050.28;10448648;28;2585;-48
2022/09/16 08:45:27;;;;;;;;;;;;;;;22.36;50.29;95045.28;10444921;28;2638;-47
2022/09/16 08:50:31;;;;;;;;;;;;;;;22.38;50.29;95042.38;10486720;28;2617;-48
2022/09/16 08:55:41;;;;;;;;;;;;;;;22.39;50.34;95041.28;10452195;28;2636;-48
2022/09/16 09:00:43;;;;;;;;;;;;;;;22.37;50.45;95038.94;10480843;28;2539;-47
2022/09/16 09:05:50;;;;;;;;;;;;;;;22.38;50.50;95040.50;10481209;28;2673;-47
2022/09/16 09:10:52;;;;;;;;;;;;;;;22.39;50.39;95038.63;10458985;28;2515;-47
2022/09/16 09:15:55;;;;;;;;;;;;;;;22.38;50.74;95040.50;10454884;28;2534;-48
2022/09/16 09:20:55;;;;;;;;;;;;;;;22.38;50.62;95029.94;10484153;28;2544;-48
2022/09/16 09:26:27;;;;;;;;;;;;;;;22.38;50.77;95035.22;10443254;28;2566;-48
2022/09/16 09:31:33;;;;;;;;;;;;;;;22.38;50.35;95029.16;10449458;28;2569;-48
2022/09/16 09:36:54;;;;;;;;;;;;;;;22.37;50.64;95017.81;10452933;28;2615;-47
2022/09/16 09:41:57;;;;;;;;;;;;;;;22.37;50.83;95017.81;10458524;28;2693;-48
2022/09/16 09:46:59;;;;;;;;;;;;;;;22.35;50.80;95017.34;10487759;28;2602;-48
2022/09/16 09:52:03;;;;;;;;;;;;;;;22.37;50.63;95023.09;10441483;28;2522;-47
2022/09/16 09:57:11;;;;;;;;;;;;;;;22.36;50.49;95021.53;10449653;28;2546;-47
2022/09/16 10:02:15;;;;;;;;;;;;;;;22.36;50.74;95018.88;10445520;28;2653;-47
2022/09/16 10:07:17;;;;;;;;;;;;;;;22.36;50.80;95016.25;10447998;28;2602;-48
2022/09/16 10:12:27;;;;;;;;;;;;;;;22.48;50.25;95008.53;10475381;28;2563;-48
2022/09/16 10:17:30;;;;;;;;;;;;;;;22.60;50.32;95008.81;10457511;28;2592;-42
2022/09/16 10:22:31;;;;;;;;;;;;;;;22.65;50.03;95007.88;10450726;28;2679;-41
2022/09/16 10:27:34;;;;;;;;;;;;;;;22.75;50.19;94999.69;10487696;28;2553;-42
2022/09/16 10:32:58;;;;;;;;;;;;;;;22.85;49.66;94996.00;10453362;28;2592;-41
2022/09/16 10:38:18;;;;;;;;;;;;;;;22.94;49.30;94988.88;10458600;28;2740;-41
2022/09/16 10:43:18;;;;;;;;;;;;;;;23.03;49.19;94994.97;10433903;28;2616;-42
2022/09/16 10:48:20;;;;;;;;;;;;;;;23.00;49.59;94993.72;10442383;28;2589;-41
2022/09/16 10:53:21;;;;;;;;;;;;;;;22.93;49.61;94988.13;10458099;28;2603;-41
2022/09/16 10:58:21;;;;;;;;;;;;;;;22.92;49.68;94988.41;10445242;28;2625;-41
2022/09/16 11:03:33;;;;;;;;;;;;;;;22.89;49.95;94991.66;10444371;28;2555;-41
2022/09/16 11:08:37;;;;;;;;;;;;;;;22.78;50.37;95000.94;10450919;28;2555;-41
2022/09/16 11:13:41;;;;;;;;;;;;;;;22.75;50.14;94996.28;10477395;28;2618;-41
2022/09/16 11:18:47;;;;;;;;;;;;;;;22.71;50.39;95011.19;10457767;28;2616;-49
2022/09/16 11:23:47;;;;;;;;;;;;;;;22.67;50.40;95005.72;10453267;28;2561;-41
2022/09/16 11:28:47;;;;;;;;;;;;;;;22.63;50.62;95016.13;10453723;28;2546;-42
2022/09/16 11:33:52;;;;;;;;;;;;;;;22.59;50.83;95001.97;10445719;28;2578;-48
2022/09/16 11:39:11;;;;;;;;;;;;;;;22.58;50.86;95005.69;10482704;28;2526;-47
2022/09/16 11:44:34;;;;;;;;;;;;;;;22.57;50.75;95030.50;10455561;28;2679;-48
2022/09/16 11:50:01;;;;;;;;;;;;;;;22.55;51.00;95022.09;10442396;28;2640;-48
2022/09/16 11:55:11;;;;;;;;;;;;;;;22.55;50.67;95035.31;10409325;28;2610;-48
2022/09/16 12:00:12;;;;;;;;;;;;;;;22.52;51.18;95040.44;10430561;28;2610;-48
2022/09/16 12:05:17;;;;;;;;;;;;;;;22.53;51.02;95042.75;10429599;28;2587;-48
2022/09/16 12:10:22;;;;;;;;;;;;;;;22.50;51.24;95047.88;10444757;28;2873;-41
2022/09/16 12:15:27;;;;;;;;;;;;;;;22.49;50.81;95041.81;10474066;28;2644;-41
2022/09/16 12:20:30;;;;;;;;;;;;;;;22.49;51.01;95046.31;10474789;28;2554;-41
2022/09/16 12:25:44;;;;;;;;;;;;;;;22.48;51.15;95071.16;10447088;28;2702;-41
2022/09/16 12:30:45;;;;;;;;;;;;;;;22.49;50.85;95062.16;10483838;28;2547;-41
2022/09/16 12:35:54;;;;;;;;;;;;;;;21.91;48.32;95064.84;10479561;28;2747;-40
2022/09/16 12:41:07;;;;;;;;;;;;;;;21.47;49.26;95081.31;10487668;28;2551;-48
2022/09/16 12:46:12;;;;;;;;;;;;;;;21.59;49.24;95094.00;10456981;28;2696;-48
2022/09/16 12:51:18;;;;;;;;;;;;;;;21.73;49.30;95107.94;10480054;28;2527;-42
2022/09/16 12:56:27;;;;;;;;;;;;;;;21.87;49.83;95100.81;10452678;28;2576;-39
2022/09/16 13:01:29;;;;;;;;;;;;;;;22.00;50.37;95081.53;10454886;28;2621;-41
2022/09/16 13:06:32;;;;;;;;;;;;;;;22.12;50.45;95087.06;10459078;28;2582;-41
2022/09/16 13:11:38;;;;;;;;;;;;;;;22.18;50.21;95083.22;10486396;28;2610;-41
2022/09/16 13:16:38;;;;;;;;;;;;;;;22.24;50.31;95075.94;10457382;28;2597;-42
2022/09/16 13:21:39;;;;;;;;;;;;;;;22.28;50.19;95072.41;10461946;28;2624;-41
2022/09/16 13:26:43;;;;;;;;;;;;;;;22.30;49.87;95056.28;10483292;28;2655;-41
2022/09/16 13:31:45;;;;;;;;;;;;;;;22.30;49.71;95057.06;10461953;28;2619;-42
2022/09/16 13:36:45;;;;;;;;;;;;;;;22.31;50.06;95060.47;10493911;28;2590;-43
2022/09/16 13:41:46;;;;;;;;;;;;;;;22.32;49.89;95068.09;10456930;28;2727;-42
2022/09/16 13:46:46;;;;;;;;;;;;;;;22.33;50.08;95072.31;10469231;28;2577;-41
2022/09/16 13:51:47;;;;;;;;;;;;;;;22.33;49.85;95076.81;10462494;28;2604;-41
2022/09/16 13:56:53;;;;;;;;;;;;;;;22.34;49.81;95096.88;10460162;28;2724;-41
2022/09/16 14:01:54;;;;;;;;;;;;;;;22.31;50.05;95095.59;10454891;28;2674;-42
2022/09/16 14:07:00;;;;;;;;;;;;;;;22.31;50.01;95082.41;10459469;28;2499;-44
2022/09/16 14:12:02;;;;;;;;;;;;;;;22.31;49.82;95111.44;10456777;28;2616;-41
2022/09/16 14:17:04;;;;;;;;;;;;;;;22.31;49.70;95114.06;10454646;28;2610;-42
2022/09/16 14:22:09;;;;;;;;;;;;;;;22.32;49.93;95120.13;10452784;28;2581;-42
2022/09/16 14:27:28;;;;;;;;;;;;;;;22.31;49.80;95123.84;10463665;28;2552;-42
2022/09/16 14:32:38;;;;;;;;;;;;;;;22.32;49.89;95118.25;10456538;28;2617;-48
2022/09/16 14:37:38;;;;;;;;;;;;;;;22.31;49.80;95111.44;10483170;28;2727;-47
2022/09/16 14:42:43;;;;;;;;;;;;;;;22.31;49.58;95111.44;10449944;28;2611;-49
2022/09/16 14:47:46;;;;;;;;;;;;;;;22.32;49.81;95115.63;10473133;28;2566;-47
2022/09/16 14:52:53;;;;;;;;;;;;;;;22.30;49.76;95115.13;10441343;28;2612;-49
2022/09/16 14:57:54;;;;;;;;;;;;;;;22.28;50.04;95122.59;10430808;28;2669;-48
2022/09/16 15:02:56;;;;;;;;;;;;;;;22.30;49.92;95120.44;10478290;28;2561;-48
2022/09/16 15:08:19;;;;;;;;;;;;;;;22.31;50.10;95123.84;10451195;28;2611;-41
2022/09/16 15:13:29;;;;;;;;;;;;;;;22.32;49.75;95117.47;10441397;28;2560;-42
2022/09/16 15:18:31;;;;;;;;;;;;;;;22.28;50.07;95119.94;10474443;28;2646;-48
2022/09/16 15:23:32;;;;;;;;;;;;;;;22.30;50.29;95117.00;10432196;28;2614;-40
2022/09/16 15:28:32;;;;;;;;;;;;;;;22.33;49.68;95113.78;10451971;28;2726;-42
2022/09/16 15:33:33;;;;;;;;;;;;;;;22.35;49.57;95122.16;10445282;28;2604;-48
2022/09/16 15:38:34;;;;;;;;;;;;;;;22.31;49.63;95121.22;10434934;28;2530;-48
2022/09/16 15:43:35;;;;;;;;;;;;;;;22.30;49.41;95109.88;10455374;28;2653;-49
2022/09/16 15:48:36;;;;;;;;;;;;;;;22.32;49.73;95104.28;10483716;28;2687;-48
2022/09/16 15:53:38;;;;;;;;;;;;;;;22.29;49.70;95110.97;10472109;28;2689;-48
2022/09/16 15:58:40;;;;;;;;;;;;;;;22.29;50.03;95105.69;10465195;28;2669;-48
2022/09/16 16:03:43;;;;;;;;;;;;;;;22.28;49.70;95098.81;10453179;28;2623;-48
2022/09/16 16:08:44;;;;;;;;;;;;;;;22.28;49.77;95103.31;10451567;28;2586;-48
2022/09/16 16:13:45;;;;;;;;;;;;;;;22.24;49.78;95103.13;10446471;28;2588;-48
2022/09/16 16:18:45;;;;;;;;;;;;;;;22.25;49.77;95102.06;10457928;28;2526;-40
2022/09/16 16:23:45;;;;;;;;;;;;;;;22.24;49.88;95103.13;10451187;28;2513;-42
2022/09/16 16:28:46;;;;;;;;;;;;;;;22.22;49.94;95102.66;10457170;28;2562;-41
2022/09/16 16:33:46;;;;;;;;;;;;;;;22.21;49.95;95095.84;10451983;28;2649;-48
2022/09/16 16:38:47;;;;;;;;;;;;;;;22.20;49.85;95093.47;10460447;28;2655;-49
2022/09/16 16:43:47;;;;;;;;;;;;;;;22.19;49.84;95107.75;10456805;28;2555;-48
2022/09/16 16:48:48;;;;;;;;;;;;;;;22.17;49.79;95094.09;10463752;28;2547;-48
2022/09/16 16:53:48;;;;;;;;;;;;;;;22.16;49.70;95098.56;10452196;28;2632;-48
2022/09/16 16:58:48;;;;;;;;;;;;;;;22.16;49.67;95097.78;10455578;28;2599;-48
2022/09/16 17:03:49;;;;;;;;;;;;;;;22.14;49.80;95108.66;10446391;28;2597;-49
2022/09/16 17:08:49;;;;;;;;;;;;;;;22.13;49.52;95112.38;10451893;28;2565;-48
2022/09/16 17:13:51;;;;;;;;;;;;;;;22.13;49.71;95120.31;10457610;28;2593;-48
2022/09/16 17:18:51;;;;;;;;;;;;;;;22.10;49.48;95112.97;10456534;28;2619;-48
2022/09/16 17:23:51;;;;;;;;;;;;;;;22.10;49.42;95112.19;10450726;28;2649;-48
2022/09/16 17:28:52;;;;;;;;;;;;;;;22.09;49.81;95097.44;10461247;28;2590;-48
2022/09/16 17:33:53;;;;;;;;;;;;;;;22.06;49.78;95101.44;10456824;28;2545;-48
2022/09/16 17:38:55;;;;;;;;;;;;;;;22.06;49.56;95093.53;10493385;28;2637;-48
2022/09/16 17:43:55;;;;;;;;;;;;;;;22.04;49.80;95085.13;10448623;28;2555;-48
2022/09/16 17:48:59;;;;;;;;;;;;;;;22.03;49.57;95085.44;10459406;28;2606;-48
2022/09/16 17:53:59;;;;;;;;;;;;;;;22.03;49.54;95085.44;10452702;28;2671;-48
2022/09/16 17:59:00;;;;;;;;;;;;;;;22.02;49.71;95092.56;10457240;28;2838;-48
2022/09/16 18:04:00;;;;;;;;;;;;;;;22.01;49.87;95092.88;10446554;28;2597;-48
2022/09/16 18:09:01;;;;;;;;;;;;;;;22.00;49.50;95092.09;10461501;28;2608;-48
2022/09/16 18:14:02;;;;;;;;;;;;;;;22.00;49.54;95092.09;10459606;28;2745;-47
2022/09/16 18:19:02;;;;;;;;;;;;;;;21.97;49.69;95090.03;10459038;28;2575;-48
2022/09/16 18:24:03;;;;;;;;;;;;;;;21.95;49.55;95084.25;10459582;28;2612;-48
2022/09/16 18:29:03;;;;;;;;;;;;;;;21.96;49.62;95104.31;10465907;28;2514;-48
2022/09/16 18:34:03;;;;;;;;;;;;;;;21.96;49.76;95100.88;10455589;28;2593;-48
2022/09/16 18:39:04;;;;;;;;;;;;;;;21.95;49.35;95113.28;10461322;28;2553;-49
2022/09/16 18:44:06;;;;;;;;;;;;;;;21.93;49.56;95118.09;10454941;28;2602;-49
2022/09/16 18:49:06;;;;;;;;;;;;;;;21.93;49.76;95125.25;10452164;28;2651;-48
2022/09/16 18:54:09;;;;;;;;;;;;;;;21.91;49.79;95117.59;10443449;28;2755;-48
2022/09/16 18:59:13;;;;;;;;;;;;;;;21.91;49.64;95122.88;10454706;28;2622;-49
2022/09/16 19:04:14;;;;;;;;;;;;;;;21.89;49.48;95127.69;10449851;28;2593;-49
2022/09/16 19:09:16;;;;;;;;;;;;;;;21.89;49.51;95135.59;10457930;28;2570;-48
2022/09/16 19:14:16;;;;;;;;;;;;;;;21.88;49.35;95125.34;10446244;28;2562;-46
2022/09/16 19:19:16;;;;;;;;;;;;;;;21.87;49.49;95114.00;10453757;28;2760;-48
2022/09/16 19:24:18;;;;;;;;;;;;;;;21.86;49.55;95125.66;10446859;28;2550;-48
2022/09/16 19:29:18;;;;;;;;;;;;;;;21.84;49.47;95119.88;10448903;28;2570;-48
2022/09/16 19:34:19;;;;;;;;;;;;;;;21.83;49.65;95131.50;10445504;28;3203;-49
2022/09/16 19:39:20;;;;;;;;;;;;;;;21.84;49.69;95133.06;10469909;28;2630;-49
2022/09/16 19:44:20;;;;;;;;;;;;;;;21.83;49.58;95131.50;10457219;28;2627;-48
2022/09/16 19:49:22;;;;;;;;;;;;;;;21.82;49.65;95132.59;10453794;28;2622;-48
2022/09/16 19:54:23;;;;;;;;;;;;;;;21.81;49.44;95128.34;10444151;28;2594;-49
2022/09/16 19:59:23;;;;;;;;;;;;;;;21.81;49.20;95126.53;10448109;28;2663;-48
2022/09/16 20:04:25;;;;;;;;;;;;;;;21.80;49.48;95132.06;10446260;28;2763;-45
2022/09/16 20:09:25;;;;;;;;;;;;;;;21.79;49.57;95126.00;10452521;28;2591;-48
2022/09/16 20:14:32;;;;;;;;;;;;;;;21.78;49.59;95111.25;10450729;28;2606;-48
2022/09/16 20:19:32;;;;;;;;;;;;;;;21.78;49.24;95115.75;10461597;28;2527;-47
2022/09/16 20:24:33;;;;;;;;;;;;;;;21.77;49.68;95130.00;10454432;28;2626;-48
2022/09/16 20:29:33;;;;;;;;;;;;;;;21.77;49.69;95130.00;10454051;28;2761;-48
2022/09/16 20:34:33;;;;;;;;;;;;;;;21.76;49.38;95131.09;10453851;28;2561;-49
2022/09/16 20:39:34;;;;;;;;;;;;;;;21.74;49.48;95123.47;10453004;28;2647;-48
2022/09/16 20:44:34;;;;;;;;;;;;;;;21.74;49.35;95128.75;10461722;28;2561;-48
2022/09/16 20:49:35;;;;;;;;;;;;;;;21.74;49.30;95126.09;10448595;28;2594;-47
2022/09/16 20:54:35;;;;;;;;;;;;;;;21.72;49.20;95135.41;10474437;28;2562;-48
2022/09/16 20:59:35;;;;;;;;;;;;;;;21.72;49.20;95127.50;10466842;28;2601;-48
2022/09/16 21:04:35;;;;;;;;;;;;;;;21.71;49.21;95118.00;10461740;28;2569;-48
2022/09/16 21:09:36;;;;;;;;;;;;;;;21.70;49.50;95124.38;10470395;28;2760;-49
2022/09/16 21:14:36;;;;;;;;;;;;;;;21.70;49.02;95124.38;10470100;28;2593;-48
2022/09/16 21:19:36;;;;;;;;;;;;;;;21.69;49.41;95143.91;10461009;28;2535;-48
2022/09/16 21:24:37;;;;;;;;;;;;;;;21.69;49.42;95144.69;10457000;28;2621;-49
2022/09/16 21:29:37;;;;;;;;;;;;;;;21.68;49.14;95137.84;10465912;28;2640;-48
2022/09/16 21:34:37;;;;;;;;;;;;;;;21.67;49.36;95154.75;10464347;28;2649;-48
2022/09/16 21:39:38;;;;;;;;;;;;;;;21.68;49.12;95158.16;10464829;28;2633;-48
2022/09/16 21:44:38;;;;;;;;;;;;;;;21.66;49.11;95170.84;10463545;28;2641;-48
2022/09/16 21:49:39;;;;;;;;;;;;;;;21.65;49.42;95158.75;10457734;28;2589;-48
2022/09/16 21:54:40;;;;;;;;;;;;;;;21.64;49.06;95146.63;10462580;28;2575;-48
2022/09/16 21:59:40;;;;;;;;;;;;;;;21.63;49.16;95153.78;10459472;28;2653;-47
2022/09/16 22:04:40;;;;;;;;;;;;;;;21.63;49.23;95163.53;10452013;28;2596;-48
2022/09/16 22:09:40;;;;;;;;;;;;;;;21.63;49.04;95155.63;10463374;28;2620;-48
2022/09/16 22:14:41;;;;;;;;;;;;;;;21.62;49.05;95157.47;10463442;28;2565;-48
2022/09/16 22:19:41;;;;;;;;;;;;;;;21.61;48.76;95157.78;10468381;28;2625;-48
2022/09/16 22:24:41;;;;;;;;;;;;;;;21.59;49.13;95152.03;10494069;28;2561;-48
2022/09/16 22:29:41;;;;;;;;;;;;;;;21.60;48.92;95161.47;10461416;28;2757;-48
2022/09/16 22:34:42;;;;;;;;;;;;;;;21.59;48.92;95157.28;10462356;28;2700;-48
2022/09/16 22:39:42;;;;;;;;;;;;;;;21.58;48.97;95159.16;10457982;28;2701;-47
2022/09/16 22:44:43;;;;;;;;;;;;;;;21.57;48.90;95162.88;10463223;28;2702;-48
2022/09/16 22:49:43;;;;;;;;;;;;;;;21.57;48.81;95152.31;10460705;28;2599;-46
2022/09/16 22:54:43;;;;;;;;;;;;;;;21.56;48.68;95155.22;10487607;28;2683;-48
2022/09/16 22:59:44;;;;;;;;;;;;;;;21.56;48.99;95152.59;10489010;28;2635;-48
2022/09/16 23:04:44;;;;;;;;;;;;;;;21.55;48.98;95143.91;10445163;28;2634;-48
2022/09/16 23:09:46;;;;;;;;;;;;;;;21.55;48.97;95148.41;10459285;28;2641;-48
2022/09/16 23:14:46;;;;;;;;;;;;;;;21.55;48.95;95153.69;10488336;28;2676;-48
2022/09/16 23:19:46;;;;;;;;;;;;;;;21.55;48.88;95145.78;10460735;28;2698;-48
2022/09/16 23:24:46;;;;;;;;;;;;;;;21.54;49.10;95141.56;10463065;28;2671;-47
2022/09/16 23:29:47;;;;;;;;;;;;;;;21.53;48.93;95130.25;10461507;28;2621;-48
2022/09/16 23:34:48;;;;;;;;;;;;;;;21.53;49.13;95129.47;10464688;28;2613;-49
2022/09/16 23:39:48;;;;;;;;;;;;;;;21.52;49.04;95128.66;10460670;28;2628;-48
2022/09/16 23:44:48;;;;;;;;;;;;;;;21.52;49.08;95146.34;10460725;28;2597;-48
2022/09/16 23:49:49;;;;;;;;;;;;;;;21.52;49.06;95148.97;10459337;28;2621;-48
2022/09/16 23:54:49;;;;;;;;;;;;;;;21.53;48.94;95153.19;10466159;28;2617;-48
2022/09/16 23:59:50;;;;;;;;;;;;;;;21.51;48.83;95150.06;10450783;28;2736;-48
